createdAt,value
2019-03-20T00:00:54.743Z,18.95
2019-03-20T00:01:54.987Z,18.94
2019-03-20T00:02:55.164Z,18.93
2019-03-20T00:03:54.799Z,18.94
2019-03-20T00:04:54.750Z,18.95
2019-03-20T00:05:54.851Z,18.94
2019-03-20T00:06:54.796Z,18.95
2019-03-20T00:07:54.873Z,18.92
2019-03-20T00:08:54.730Z,18.93
2019-03-20T00:09:55.000Z,18.93
2019-03-20T00:10:54.953Z,18.92
2019-03-20T00:11:54.984Z,18.92
2019-03-20T00:12:54.696Z,18.91
2019-03-20T00:13:54.966Z,18.91
2019-03-20T00:14:54.990Z,18.9
2019-03-20T00:15:55.022Z,18.9
2019-03-20T00:16:54.692Z,18.9
2019-03-20T00:17:54.656Z,18.9
2019-03-20T00:18:54.731Z,18.9
2019-03-20T00:19:54.691Z,18.88
2019-03-20T00:20:54.702Z,18.89
2019-03-20T00:21:54.647Z,18.89
2019-03-20T00:22:54.723Z,18.88
2019-03-20T00:23:55.089Z,18.88
2019-03-20T00:24:54.754Z,18.88
2019-03-20T00:25:54.774Z,18.87
2019-03-20T00:26:54.737Z,18.87
2019-03-20T00:27:54.781Z,18.87
2019-03-20T00:28:54.846Z,18.86
2019-03-20T00:29:54.798Z,18.86
2019-03-20T00:30:54.869Z,18.86
2019-03-20T00:31:54.975Z,18.86
2019-03-20T00:32:55.035Z,18.86
2019-03-20T00:33:54.861Z,18.86
2019-03-20T00:35:00.685Z,18.85
2019-03-20T00:35:54.711Z,18.84
2019-03-20T00:36:54.699Z,18.85
2019-03-20T00:37:54.776Z,18.85
2019-03-20T00:38:54.837Z,18.84
2019-03-20T00:39:54.778Z,18.84
2019-03-20T00:40:55.020Z,18.85
2019-03-20T00:41:54.758Z,18.84
2019-03-20T00:42:54.775Z,18.85
2019-03-20T00:43:54.790Z,18.83
2019-03-20T00:44:54.866Z,18.83
2019-03-20T00:45:54.918Z,18.83
2019-03-20T00:46:54.897Z,18.82
2019-03-20T00:47:54.936Z,18.82
2019-03-20T00:48:54.857Z,18.82
2019-03-20T00:49:54.968Z,18.81
2019-03-20T00:50:54.896Z,18.82
2019-03-20T00:51:54.993Z,18.82
2019-03-20T00:52:54.664Z,18.81
2019-03-20T00:53:54.657Z,18.8
2019-03-20T00:54:54.647Z,18.8
2019-03-20T00:55:54.753Z,18.81
2019-03-20T00:56:54.688Z,18.8
2019-03-20T00:57:54.736Z,18.79
2019-03-20T00:58:54.719Z,18.77
2019-03-20T00:59:54.708Z,18.78
2019-03-20T01:00:54.780Z,18.78
2019-03-20T01:01:54.930Z,18.78
2019-03-20T01:02:54.909Z,18.77
2019-03-20T01:03:54.634Z,18.78
2019-03-20T01:04:54.815Z,18.76
2019-03-20T01:05:54.819Z,18.76
2019-03-20T01:06:54.874Z,18.76
2019-03-20T01:07:54.864Z,18.76
2019-03-20T01:08:54.934Z,18.75
2019-03-20T01:09:54.939Z,18.76
2019-03-20T01:10:54.658Z,18.75
2019-03-20T01:11:54.670Z,18.75
2019-03-20T01:12:54.689Z,18.75
2019-03-20T01:13:54.691Z,18.75
2019-03-20T01:14:54.715Z,18.75
2019-03-20T01:15:54.896Z,18.75
2019-03-20T01:16:54.712Z,18.74
2019-03-20T01:17:54.731Z,18.74
2019-03-20T01:18:54.760Z,18.73
2019-03-20T01:19:54.778Z,18.73
2019-03-20T01:20:54.873Z,18.73
2019-03-20T01:21:54.816Z,18.72
2019-03-20T01:22:54.831Z,18.72
2019-03-20T01:23:54.825Z,18.71
2019-03-20T01:24:54.896Z,18.72
2019-03-20T01:25:54.872Z,18.71
2019-03-20T01:26:54.870Z,18.71
2019-03-20T01:27:55.087Z,18.71
2019-03-20T01:28:54.628Z,18.71
2019-03-20T01:29:54.638Z,18.7
2019-03-20T01:30:54.719Z,18.71
2019-03-20T01:31:54.817Z,18.7
2019-03-20T01:32:54.654Z,18.7
2019-03-20T01:33:55.016Z,18.7
2019-03-20T01:34:54.687Z,18.7
2019-03-20T01:35:54.692Z,18.69
2019-03-20T01:36:54.844Z,18.69
2019-03-20T01:37:55.898Z,18.68
2019-03-20T01:38:54.853Z,18.68
2019-03-20T01:39:54.880Z,18.69
2019-03-20T01:40:54.790Z,18.68
2019-03-20T01:41:54.816Z,18.68
2019-03-20T01:42:54.820Z,18.68
2019-03-20T01:43:54.817Z,18.67
2019-03-20T01:44:54.828Z,18.67
2019-03-20T01:45:54.666Z,18.67
2019-03-20T01:46:54.685Z,18.66
2019-03-20T01:47:54.662Z,18.66
2019-03-20T01:48:54.701Z,18.66
2019-03-20T01:49:54.799Z,18.66
2019-03-20T01:50:54.843Z,18.65
2019-03-20T01:51:54.723Z,18.66
2019-03-20T01:52:54.768Z,18.65
2019-03-20T01:53:54.895Z,18.65
2019-03-20T01:54:54.786Z,18.64
2019-03-20T01:55:54.865Z,18.63
2019-03-20T01:56:54.785Z,18.63
2019-03-20T01:57:54.904Z,18.63
2019-03-20T01:58:54.834Z,18.63
2019-03-20T01:59:54.936Z,18.63
2019-03-20T02:00:54.872Z,18.63
2019-03-20T02:01:54.853Z,18.63
2019-03-20T02:02:54.597Z,18.63
2019-03-20T02:03:54.631Z,18.63
2019-03-20T02:04:54.626Z,18.62
2019-03-20T02:05:54.641Z,18.61
2019-03-20T02:06:54.701Z,18.6
2019-03-20T04:06:54.684Z,18.34
2019-03-20T04:07:54.616Z,18.34
2019-03-20T04:08:54.674Z,18.34
2019-03-20T04:09:54.649Z,18.33
2019-03-20T04:11:54.675Z,18.33
2019-03-20T04:12:54.700Z,18.32
2019-03-20T04:13:54.688Z,18.33
2019-03-20T04:14:54.610Z,18.33
2019-03-20T04:16:54.836Z,18.33
2019-03-20T04:18:54.864Z,18.32
2019-03-20T04:20:54.796Z,18.31
2019-03-20T04:21:55.111Z,18.31
2019-03-20T04:22:54.822Z,18.32
2019-03-20T04:23:54.558Z,18.31
2019-03-20T04:25:54.558Z,18.3
2019-03-20T04:26:54.570Z,18.3
2019-03-20T04:28:54.633Z,18.3
2019-03-20T04:30:54.661Z,18.3
2019-03-20T04:31:54.636Z,18.29
2019-03-20T04:32:54.668Z,18.3
2019-03-20T04:35:54.722Z,18.29
2019-03-20T04:36:54.731Z,18.3
2019-03-20T04:37:54.770Z,18.3
2019-03-20T04:40:54.792Z,18.33
2019-03-20T04:41:54.591Z,18.33
2019-03-20T04:42:54.619Z,18.34
2019-03-20T04:43:54.682Z,18.34
2019-03-20T04:45:54.669Z,18.35
2019-03-20T04:47:54.759Z,18.37
2019-03-20T04:48:54.686Z,18.36
2019-03-20T04:49:54.682Z,18.36
2019-03-20T04:50:54.710Z,18.39
2019-03-20T04:52:54.721Z,18.39
2019-03-20T04:53:54.743Z,18.4
2019-03-20T04:54:54.753Z,18.41
2019-03-20T04:55:54.871Z,18.42
2019-03-20T04:58:54.555Z,18.44
2019-03-20T04:59:54.559Z,18.45
2019-03-20T05:00:54.657Z,18.47
2019-03-20T05:01:54.580Z,18.48
2019-03-20T05:03:54.586Z,18.51
2019-03-20T05:05:54.745Z,18.54
2019-03-20T05:06:58.989Z,18.56
2019-03-20T05:07:54.645Z,18.57
2019-03-20T05:08:54.896Z,18.58
2019-03-20T05:10:54.713Z,18.62
2019-03-20T05:11:54.721Z,18.64
2019-03-20T05:12:54.723Z,18.65
2019-03-20T05:14:54.766Z,18.69
2019-03-20T05:16:54.563Z,18.72
2019-03-20T05:17:54.600Z,18.74
2019-03-20T05:18:54.599Z,18.75
2019-03-20T05:20:54.633Z,18.81
2019-03-20T05:21:54.712Z,18.82
2019-03-20T05:22:54.668Z,18.84
2019-03-20T05:23:54.645Z,18.86
2019-03-20T05:25:54.712Z,18.89
2019-03-20T05:26:54.803Z,18.9
2019-03-20T05:27:55.173Z,18.93
2019-03-20T05:28:54.727Z,18.95
2019-03-20T05:30:54.828Z,18.98
2019-03-20T05:31:54.866Z,18.99
2019-03-20T05:34:54.552Z,19.04
2019-03-20T05:35:54.577Z,19.05
2019-03-20T05:37:54.539Z,19.06
2019-03-20T05:38:54.563Z,19.08
2019-03-20T05:39:54.607Z,19.1
2019-03-20T05:40:54.620Z,19.11
2019-03-20T05:42:54.640Z,19.14
2019-03-20T05:44:54.755Z,19.17
2019-03-20T05:45:54.684Z,19.18
2019-03-20T05:46:54.717Z,19.18
2019-03-20T05:47:54.856Z,19.2
2019-03-20T05:49:54.699Z,19.19
2019-03-20T05:50:54.853Z,19.21
2019-03-20T05:51:54.815Z,19.22
2019-03-20T05:53:54.639Z,19.22
2019-03-20T05:54:54.570Z,19.24
2019-03-20T05:55:54.567Z,19.25
2019-03-20T05:56:54.606Z,19.25
2019-03-20T05:59:54.705Z,19.27
2019-03-20T06:00:54.666Z,19.28
2019-03-20T06:03:54.695Z,19.29
2019-03-20T06:04:54.694Z,19.29
2019-03-20T06:05:54.707Z,19.29
2019-03-20T06:06:54.739Z,19.3
2019-03-20T06:09:54.751Z,19.31
2019-03-20T06:10:55.044Z,19.31
2019-03-20T06:12:54.489Z,19.32
2019-03-20T06:13:54.583Z,19.32
2019-03-20T06:15:54.534Z,19.32
2019-03-20T06:16:54.756Z,19.32
2019-03-20T06:17:54.548Z,19.33
2019-03-20T06:18:54.612Z,19.33
2019-03-20T06:20:54.637Z,19.32
2019-03-20T06:21:54.810Z,19.33
2019-03-20T06:22:54.663Z,19.33
2019-03-20T06:23:55.787Z,19.33
2019-03-20T06:25:54.825Z,19.32
2019-03-20T06:26:54.774Z,19.33
2019-03-20T06:28:54.714Z,19.33
2019-03-20T06:29:54.744Z,19.33
2019-03-20T06:30:54.794Z,19.33
2019-03-20T06:32:54.674Z,19.33
2019-03-20T06:33:54.675Z,19.33
2019-03-20T06:34:54.597Z,19.33
2019-03-20T06:35:54.577Z,19.33
2019-03-20T06:37:54.656Z,19.32
2019-03-20T06:38:54.718Z,19.32
2019-03-20T06:39:54.650Z,19.33
2019-03-20T06:40:54.653Z,19.33
2019-03-20T06:42:55.427Z,19.32
2019-03-20T06:43:54.673Z,19.33
2019-03-20T06:44:54.674Z,19.21
2019-03-20T06:45:54.790Z,19.2
2019-03-20T06:47:54.727Z,18.86
2019-03-20T06:48:54.844Z,18.73
2019-03-20T06:49:54.754Z,18.69
2019-03-20T06:50:55.617Z,18.72
2019-03-20T06:52:54.524Z,18.83
2019-03-20T06:54:54.913Z,18.88
2019-03-20T06:55:54.569Z,18.93
2019-03-20T06:56:54.570Z,18.96
2019-03-20T06:58:54.674Z,19.02
2019-03-20T06:59:54.603Z,19.04
2019-03-20T07:00:54.638Z,19.06
2019-03-20T07:01:54.628Z,19.08
2019-03-20T07:04:54.732Z,19.12
2019-03-20T07:05:54.678Z,19.12
2019-03-20T07:06:54.698Z,19.12
2019-03-20T07:07:54.707Z,19.13
2019-03-20T07:10:54.504Z,19.14
2019-03-20T07:12:54.626Z,19.15
2019-03-20T07:13:54.562Z,19.16
2019-03-20T07:14:54.604Z,19.17
2019-03-20T07:15:54.646Z,19.18
2019-03-20T07:18:54.639Z,19.2
2019-03-20T07:19:54.625Z,19.21
2019-03-20T07:20:54.677Z,19.22
2019-03-20T07:21:54.653Z,19.22
2019-03-20T07:23:54.751Z,19.25
2019-03-20T07:24:54.797Z,19.26
2019-03-20T07:25:54.980Z,19.26
2019-03-20T07:26:54.845Z,19.27
2019-03-20T07:28:54.522Z,19.29
2019-03-20T07:30:54.514Z,19.31
2019-03-20T07:31:55.660Z,19.32
2019-03-20T07:32:54.704Z,19.33
2019-03-20T07:33:54.557Z,19.34
2019-03-20T07:35:54.569Z,19.35
2019-03-20T07:36:54.650Z,19.36
2019-03-20T07:37:56.061Z,19.36
2019-03-20T07:39:54.804Z,19.38
2019-03-20T07:40:54.725Z,19.38
2019-03-20T07:41:54.636Z,19.39
2019-03-20T07:44:54.914Z,19.4
2019-03-20T07:45:54.717Z,19.41
2019-03-20T07:46:54.858Z,19.42
2019-03-20T07:47:54.763Z,19.42
2019-03-20T07:49:54.608Z,19.43
2019-03-20T07:50:54.571Z,19.44
2019-03-20T07:51:54.559Z,19.44
2019-03-20T07:52:54.539Z,19.45
2019-03-20T07:54:54.883Z,19.45
2019-03-20T07:55:54.621Z,19.45
2019-03-20T07:56:54.710Z,19.45
2019-03-20T07:57:54.712Z,19.46
2019-03-20T07:59:54.713Z,19.46
2019-03-20T08:00:54.698Z,19.46
2019-03-20T08:02:54.670Z,19.46
2019-03-20T08:03:54.702Z,19.46
2019-03-20T08:04:54.720Z,19.46
2019-03-20T08:05:54.739Z,19.47
2019-03-20T08:07:54.446Z,19.47
2019-03-20T08:08:54.467Z,19.47
2019-03-20T08:09:54.501Z,19.47
2019-03-20T08:10:54.525Z,19.47
2019-03-20T08:12:54.524Z,19.48
2019-03-20T08:14:54.635Z,19.47
2019-03-20T08:15:54.659Z,19.47
2019-03-20T08:16:54.745Z,19.47
2019-03-20T08:17:54.556Z,19.47
2019-03-20T08:19:54.619Z,19.47
2019-03-20T08:20:54.772Z,19.49
2019-03-20T08:21:54.619Z,19.47
2019-03-20T08:22:54.650Z,19.47
2019-03-20T08:24:55.752Z,19.47
2019-03-20T08:25:54.831Z,19.47
2019-03-20T08:26:54.801Z,19.48
2019-03-20T08:28:54.722Z,19.47
2019-03-20T08:29:54.513Z,19.47
2019-03-20T08:30:54.587Z,19.47
2019-03-20T08:31:54.545Z,19.47
2019-03-20T08:34:54.671Z,19.47
2019-03-20T08:35:54.561Z,19.47
2019-03-20T08:36:54.870Z,19.48
2019-03-20T08:37:54.598Z,19.47
2019-03-20T08:40:54.648Z,19.47
2019-03-20T08:41:54.663Z,19.47
2019-03-20T08:42:55.027Z,19.48
2019-03-20T08:43:54.689Z,19.47
2019-03-20T08:45:54.808Z,19.47
2019-03-20T08:46:54.687Z,19.46
2019-03-20T08:47:54.831Z,19.47
2019-03-20T08:48:54.465Z,19.46
2019-03-20T08:50:54.564Z,19.48
2019-03-20T08:51:54.583Z,19.49
2019-03-20T08:53:56.280Z,19.5
2019-03-20T08:54:54.545Z,19.5
2019-03-20T08:55:54.517Z,19.54
2019-03-20T08:56:54.547Z,19.53
2019-03-20T08:58:54.732Z,19.53
2019-03-20T08:59:54.642Z,19.54
2019-03-20T09:00:54.621Z,19.54
2019-03-20T09:02:55.375Z,19.55
2019-03-20T09:04:54.784Z,19.55
2019-03-20T09:05:54.709Z,19.56
2019-03-20T09:06:54.701Z,19.57
2019-03-20T09:07:54.855Z,19.57
2019-03-20T09:09:54.480Z,19.58
2019-03-20T09:10:54.522Z,19.59
2019-03-20T09:11:54.535Z,19.59
2019-03-20T09:12:54.618Z,19.58
2019-03-20T09:14:54.645Z,19.6
2019-03-20T09:15:54.583Z,19.61
2019-03-20T09:16:54.704Z,19.61
2019-03-20T09:17:54.615Z,19.62
2019-03-20T09:19:54.624Z,19.62
2019-03-20T09:20:54.640Z,19.63
2019-03-20T09:21:54.713Z,19.63
2019-03-20T09:22:55.125Z,19.64
2019-03-20T09:24:54.718Z,19.65
2019-03-20T09:25:54.687Z,19.67
2019-03-20T09:27:54.447Z,19.67
2019-03-20T09:28:54.530Z,19.68
2019-03-20T09:29:54.481Z,19.7
2019-03-20T09:31:54.521Z,19.72
2019-03-20T09:32:54.505Z,19.7
2019-03-20T09:33:54.611Z,19.72
2019-03-20T09:34:54.975Z,19.71
2019-03-20T09:36:54.560Z,19.72
2019-03-20T09:37:54.663Z,19.73
2019-03-20T09:38:54.675Z,19.74
2019-03-20T09:39:54.659Z,19.74
2019-03-20T09:41:54.650Z,19.73
2019-03-20T09:42:54.781Z,19.73
2019-03-20T09:43:55.038Z,19.72
2019-03-20T09:44:54.659Z,19.72
2019-03-20T09:46:54.692Z,19.73
2019-03-20T09:48:54.560Z,19.73
2019-03-20T09:50:54.622Z,19.73
2019-03-20T09:51:54.846Z,19.73
2019-03-20T09:52:54.597Z,19.73
2019-03-20T09:53:54.544Z,19.73
2019-03-20T09:55:54.553Z,19.74
2019-03-20T09:56:54.652Z,19.73
2019-03-20T09:57:54.598Z,19.74
2019-03-20T09:59:54.617Z,19.75
2019-03-20T10:00:54.631Z,19.74
2019-03-20T10:01:54.773Z,19.74
2019-03-20T10:02:54.750Z,19.77
2019-03-20T10:04:54.775Z,19.79
2019-03-20T10:05:54.813Z,19.78
2019-03-20T10:07:54.487Z,19.78
2019-03-20T10:08:54.637Z,19.78
2019-03-20T10:09:54.473Z,19.79
2019-03-20T10:10:54.490Z,19.79
2019-03-20T10:12:54.676Z,19.78
2019-03-20T10:13:54.525Z,19.82
2019-03-20T10:15:54.551Z,19.82
2019-03-20T10:16:54.572Z,19.82
2019-03-20T10:17:54.597Z,19.81
2019-03-20T10:20:54.719Z,19.86
2019-03-20T10:21:54.701Z,19.87
2019-03-20T10:22:54.693Z,19.86
2019-03-20T10:23:54.714Z,19.85
2019-03-20T10:25:54.688Z,19.83
2019-03-20T10:26:54.441Z,19.83
2019-03-20T10:27:54.965Z,19.83
2019-03-20T10:28:54.557Z,19.82
2019-03-20T10:30:54.595Z,19.82
2019-03-20T10:31:54.578Z,19.82
2019-03-20T10:32:54.543Z,19.81
2019-03-20T10:34:54.594Z,19.8
2019-03-20T10:36:54.611Z,19.8
2019-03-20T10:37:54.692Z,19.79
2019-03-20T10:39:05.692Z,19.78
2019-03-20T10:39:54.647Z,19.79
2019-03-20T10:42:54.776Z,19.79
2019-03-20T10:43:54.431Z,19.79
2019-03-20T10:44:54.430Z,19.8
2019-03-20T10:46:54.465Z,19.77
2019-03-20T10:48:56.296Z,19.75
2019-03-20T10:49:54.595Z,19.74
2019-03-20T10:50:54.530Z,19.73
2019-03-20T10:51:54.649Z,19.74
2019-03-20T10:53:54.564Z,19.72
2019-03-20T10:54:54.563Z,19.72
2019-03-20T10:55:54.732Z,19.72
2019-03-20T10:56:54.669Z,19.72
2019-03-20T10:58:54.631Z,19.7
2019-03-20T10:59:54.664Z,19.69
2019-03-20T11:00:54.657Z,19.69
2019-03-20T11:02:54.470Z,19.68
2019-03-20T11:03:54.481Z,19.68
2019-03-20T11:04:54.463Z,19.68
2019-03-20T11:05:54.517Z,19.68
2019-03-20T11:07:54.618Z,19.67
2019-03-20T11:09:54.630Z,19.68
2019-03-20T11:10:54.722Z,19.66
2019-03-20T11:11:54.608Z,19.65
2019-03-20T11:12:54.624Z,19.66
2019-03-20T11:14:54.737Z,19.65
2019-03-20T11:15:54.700Z,19.66
2019-03-20T11:16:54.667Z,19.66
2019-03-20T11:17:54.684Z,19.65
2019-03-20T11:19:56.252Z,19.65
2019-03-20T11:20:54.435Z,19.63
2019-03-20T11:22:54.456Z,19.64
2019-03-20T11:23:54.500Z,19.63
2019-03-20T11:24:54.466Z,19.63
2019-03-20T11:25:54.654Z,19.62
2019-03-20T11:27:54.541Z,19.63
2019-03-20T11:28:54.519Z,19.66
2019-03-20T11:29:54.540Z,19.66
2019-03-20T11:30:54.558Z,19.67
2019-03-20T11:32:54.952Z,19.68
2019-03-20T11:33:54.709Z,19.7
2019-03-20T11:34:54.622Z,19.69
2019-03-20T11:35:54.787Z,19.7
2019-03-20T11:37:54.416Z,19.71
2019-03-20T11:38:54.515Z,19.72
2019-03-20T11:39:54.585Z,19.77
2019-03-20T11:40:54.475Z,19.76
2019-03-20T11:42:54.507Z,19.76
2019-03-20T11:43:54.512Z,19.77
2019-03-20T11:44:54.559Z,19.77
2019-03-20T11:45:54.613Z,19.76
2019-03-20T11:47:54.565Z,19.76
2019-03-20T11:48:54.578Z,19.76
2019-03-20T11:49:54.641Z,19.76
2019-03-20T11:50:54.609Z,19.75
2019-03-20T11:52:58.194Z,19.75
2019-03-20T11:53:54.697Z,19.73
2019-03-20T11:55:54.425Z,19.75
2019-03-20T11:56:54.460Z,19.74
2019-03-20T11:57:54.458Z,19.74
2019-03-20T11:58:54.617Z,19.74
2019-03-20T12:00:54.515Z,19.75
2019-03-20T12:01:54.489Z,19.75
2019-03-20T12:02:54.501Z,19.76
2019-03-20T12:03:54.692Z,19.75
2019-03-20T12:05:54.561Z,19.76
2019-03-20T12:06:54.570Z,19.77
2019-03-20T12:08:54.676Z,19.78
2019-03-20T12:10:54.642Z,19.79
2019-03-20T12:11:54.649Z,19.78
2019-03-20T12:12:54.457Z,19.8
2019-03-20T12:13:54.508Z,19.79
2019-03-20T12:15:54.576Z,19.78
2019-03-20T12:16:54.470Z,19.8
2019-03-20T12:17:54.472Z,19.8
2019-03-20T12:18:54.502Z,19.81
2019-03-20T12:20:54.511Z,19.81
2019-03-20T12:21:54.561Z,19.81
2019-03-20T12:22:54.557Z,19.82
2019-03-20T12:23:54.557Z,19.83
2019-03-20T12:25:54.599Z,19.86
2019-03-20T12:26:54.618Z,19.84
2019-03-20T12:28:54.761Z,19.83
2019-03-20T12:29:54.377Z,19.83
2019-03-20T12:31:54.406Z,19.83
2019-03-20T12:33:54.461Z,19.82
2019-03-20T12:35:54.470Z,19.82
2019-03-20T12:36:56.520Z,19.83
2019-03-20T12:37:54.866Z,19.82
2019-03-20T12:38:54.526Z,19.82
2019-03-20T12:40:54.521Z,19.8
2019-03-20T12:41:54.553Z,19.8
2019-03-20T12:42:54.575Z,19.8
2019-03-20T12:43:54.591Z,19.79
2019-03-20T12:46:54.635Z,19.76
2019-03-20T12:47:54.440Z,19.77
2019-03-20T12:48:54.434Z,19.76
2019-03-20T12:49:54.583Z,19.76
2019-03-20T12:51:54.557Z,19.75
2019-03-20T12:52:54.475Z,19.75
2019-03-20T12:54:54.582Z,19.73
2019-03-20T12:55:54.608Z,19.74
2019-03-20T12:56:54.539Z,19.74
2019-03-20T12:57:54.559Z,19.75
2019-03-20T12:59:54.560Z,19.73
2019-03-20T13:00:54.760Z,19.73
2019-03-20T13:01:54.696Z,19.73
2019-03-20T13:03:54.370Z,19.73
2019-03-20T13:04:54.379Z,19.73
2019-03-20T13:05:54.488Z,19.72
2019-03-20T13:06:54.429Z,19.72
2019-03-20T13:08:54.486Z,19.72
2019-03-20T13:10:02.847Z,19.72
2019-03-20T13:10:54.444Z,19.71
2019-03-20T13:11:54.542Z,19.71
2019-03-20T13:13:54.523Z,19.7
2019-03-20T13:14:54.524Z,19.71
2019-03-20T13:15:54.523Z,19.71
2019-03-20T13:17:54.561Z,19.7
2019-03-20T13:18:54.565Z,19.7
2019-03-20T13:19:54.597Z,19.7
2019-03-20T13:20:54.574Z,19.7
2019-03-20T13:22:54.389Z,19.69
2019-03-20T13:23:54.398Z,19.7
2019-03-20T13:24:54.442Z,19.7
2019-03-20T13:26:54.465Z,19.68
2019-03-20T13:27:54.454Z,19.69
2019-03-20T13:28:54.595Z,19.69
2019-03-20T13:29:54.653Z,19.69
2019-03-20T13:32:54.677Z,19.67
2019-03-20T13:33:54.547Z,19.7
2019-03-20T13:34:54.725Z,19.71
2019-03-20T13:35:54.596Z,19.72
2019-03-20T13:37:54.714Z,19.75
2019-03-20T13:38:56.448Z,19.76
2019-03-20T13:39:54.363Z,19.75
2019-03-20T13:40:54.529Z,19.76
2019-03-20T13:42:54.530Z,19.79
2019-03-20T13:43:54.417Z,19.79
2019-03-20T13:44:54.400Z,19.79
2019-03-20T13:45:54.451Z,19.8
2019-03-20T13:48:54.565Z,19.82
2019-03-20T13:49:54.483Z,19.83
2019-03-20T13:51:54.546Z,19.84
2019-03-20T13:53:54.590Z,19.85
2019-03-20T13:54:54.574Z,19.86
2019-03-20T13:55:54.595Z,19.86
2019-03-20T13:56:54.604Z,19.86
2019-03-20T13:58:54.410Z,19.88
2019-03-20T13:59:54.434Z,19.88
2019-03-20T14:00:54.444Z,19.89
2019-03-20T14:01:54.464Z,19.9
2019-03-20T14:03:54.565Z,19.93
2019-03-20T14:04:54.512Z,19.94
2019-03-20T14:05:54.517Z,19.93
2019-03-20T14:06:54.521Z,19.94
2019-03-20T14:08:54.611Z,19.95
2019-03-20T14:09:54.558Z,19.95
2019-03-20T14:10:54.626Z,19.97
2019-03-20T14:12:54.634Z,19.97
2019-03-20T14:13:54.596Z,19.98
2019-03-20T14:14:54.615Z,19.98
2019-03-20T14:17:54.419Z,19.99
2019-03-20T14:18:54.399Z,19.99
2019-03-20T14:19:54.493Z,19.99
2019-03-20T14:20:54.587Z,20
2019-03-20T14:22:54.483Z,20.01
2019-03-20T14:23:54.656Z,20.01
2019-03-20T14:24:54.512Z,20
2019-03-20T14:25:54.936Z,20.03
2019-03-20T14:27:54.542Z,20.03
2019-03-20T14:28:54.530Z,20.07
2019-03-20T14:30:54.558Z,20.06
2019-03-20T14:31:54.579Z,20.06
2019-03-20T14:32:54.382Z,20.06
2019-03-20T14:33:54.392Z,20.06
2019-03-20T14:36:54.444Z,20.07
2019-03-20T14:37:55.153Z,20.06
2019-03-20T14:38:54.564Z,20.07
2019-03-20T14:39:54.474Z,20.08
2019-03-20T14:41:54.479Z,20.08
2019-03-20T14:42:54.531Z,20.08
2019-03-20T14:43:54.588Z,20.08
2019-03-20T14:44:54.674Z,20.08
2019-03-20T14:46:54.880Z,20.08
2019-03-20T14:48:54.599Z,20.08
2019-03-20T14:49:54.605Z,20.09
2019-03-20T14:52:54.474Z,20.09
2019-03-20T14:53:54.377Z,20.08
2019-03-20T14:55:54.422Z,20.08
2019-03-20T14:56:54.397Z,20.08
2019-03-20T14:57:54.437Z,20.08
2019-03-20T14:58:54.475Z,20.08
2019-03-20T15:00:54.488Z,20.09
2019-03-20T15:02:54.626Z,20.08
2019-03-20T15:03:54.525Z,20.1
2019-03-20T15:04:54.524Z,20.1
2019-03-20T15:05:54.582Z,20.09
2019-03-20T15:07:54.575Z,20.1
2019-03-20T15:08:54.465Z,20.1
2019-03-20T15:09:54.394Z,20.11
2019-03-20T15:10:54.406Z,20.1
2019-03-20T15:13:54.549Z,20.1
2019-03-20T15:14:54.557Z,20.1
2019-03-20T15:15:54.494Z,20.11
2019-03-20T15:16:54.554Z,20.11
2019-03-20T15:18:54.616Z,20.11
2019-03-20T15:19:54.546Z,20.11
2019-03-20T15:21:54.543Z,20.11
2019-03-20T15:22:54.586Z,20.12
2019-03-20T15:23:54.583Z,20.11
2019-03-20T15:24:54.618Z,20.1
2019-03-20T15:26:54.357Z,20.12
2019-03-20T15:27:54.475Z,20.11
2019-03-20T15:28:54.487Z,20.12
2019-03-20T15:29:54.531Z,20.11
2019-03-20T15:31:54.579Z,20.11
2019-03-20T15:32:54.407Z,20.11
2019-03-20T15:33:54.440Z,20.11
2019-03-20T15:35:54.471Z,20.11
2019-03-20T15:36:54.468Z,20.11
2019-03-20T15:37:54.579Z,20.11
2019-03-20T15:38:54.660Z,20.12
2019-03-20T15:40:56.240Z,20.11
2019-03-20T15:42:54.378Z,20.11
2019-03-20T15:44:02.073Z,20.11
2019-03-20T15:44:54.522Z,20.12
2019-03-20T15:45:54.423Z,20.12
2019-03-20T15:47:54.463Z,20.12
2019-03-20T15:48:54.547Z,20.13
2019-03-20T15:49:54.327Z,20.13
2019-03-20T15:50:54.473Z,20.12
2019-03-20T15:52:54.664Z,20.13
2019-03-20T15:53:54.520Z,20.13
2019-03-20T15:54:54.584Z,20.13
2019-03-20T15:57:54.303Z,20.12
2019-03-20T15:58:54.565Z,20.13
2019-03-20T15:59:54.338Z,20.11
2019-03-20T16:00:54.348Z,20.13
2019-03-20T16:03:54.316Z,20.13
2019-03-20T16:04:54.385Z,20.12
2019-03-20T16:05:54.417Z,20.12
2019-03-20T16:06:54.392Z,20.11
2019-03-20T16:08:56.846Z,20.11
2019-03-20T16:09:54.427Z,20.11
2019-03-20T16:11:54.313Z,20.12
2019-03-20T16:14:54.821Z,20.13
2019-03-20T16:15:54.535Z,20.13
2019-03-20T16:16:54.552Z,20.12
2019-03-20T16:17:54.561Z,20.12
2019-03-20T16:19:56.505Z,20.13
2019-03-20T16:20:54.391Z,20.13
2019-03-20T16:22:54.399Z,20.13
2019-03-20T16:23:54.421Z,20.13
2019-03-20T16:24:54.519Z,20.12
2019-03-20T16:25:54.453Z,20.13
2019-03-20T16:28:54.479Z,20.12
2019-03-20T16:29:54.505Z,20.11
2019-03-20T16:30:54.621Z,20.13
2019-03-20T16:31:54.667Z,20.12
2019-03-20T16:33:54.573Z,20.12
2019-03-20T16:34:54.557Z,20.12
2019-03-20T16:36:54.498Z,20.11
2019-03-20T16:37:54.471Z,20.11
2019-03-20T16:38:54.367Z,20.11
2019-03-20T16:39:54.373Z,20.11
2019-03-20T16:41:54.492Z,20.12
2019-03-20T16:42:54.405Z,20.11
2019-03-20T16:43:54.432Z,20.1
2019-03-20T16:45:54.446Z,20.11
2019-03-20T16:46:54.440Z,20.11
2019-03-20T16:49:54.556Z,20.12
2019-03-20T16:50:54.497Z,20.14
2019-03-20T16:51:54.591Z,20.15
2019-03-20T16:53:54.411Z,20.14
2019-03-20T16:54:54.373Z,20.17
2019-03-20T16:55:54.382Z,20.17
2019-03-20T16:57:54.671Z,20.15
2019-03-20T16:59:54.432Z,20.15
2019-03-20T17:01:54.414Z,20.15
2019-03-20T17:02:54.538Z,20.15
2019-03-20T17:03:54.477Z,20.16
2019-03-20T17:04:54.471Z,20.15
2019-03-20T17:06:54.548Z,20.14
2019-03-20T17:07:54.520Z,20.14
2019-03-20T17:09:54.561Z,20.13
2019-03-20T17:10:54.553Z,20.13
2019-03-20T17:11:54.483Z,20.13
2019-03-20T17:12:54.296Z,20.13
2019-03-20T17:16:54.347Z,20.14
2019-03-20T17:17:54.356Z,20.13
2019-03-20T17:18:55.635Z,20.12
2019-03-20T17:19:54.502Z,20.13
2019-03-20T17:22:54.436Z,20.13
2019-03-20T17:23:54.456Z,20.13
2019-03-20T17:24:54.553Z,20.13
2019-03-20T17:26:54.428Z,20.07
2019-03-20T17:27:54.659Z,20.08
2019-03-20T17:28:54.496Z,20.09
2019-03-20T17:29:54.518Z,20.09
2019-03-20T17:31:54.623Z,20.09
2019-03-20T17:32:54.323Z,20.09
2019-03-20T17:33:54.339Z,20.1
2019-03-20T17:34:54.470Z,20.1
2019-03-20T17:35:54.376Z,20.1
2019-03-20T17:37:54.363Z,20.1
2019-03-20T17:39:54.563Z,20.1
2019-03-20T17:40:54.722Z,20.11
2019-03-20T17:41:54.553Z,20.11
2019-03-20T17:42:54.466Z,20.11
2019-03-20T17:44:54.318Z,20.11
2019-03-20T17:45:54.560Z,20.11
2019-03-20T17:47:54.648Z,20.11
2019-03-20T17:49:54.671Z,20.12
2019-03-20T17:50:54.433Z,20.12
2019-03-20T17:51:54.346Z,20.12
2019-03-20T17:52:54.340Z,20.13
2019-03-20T17:54:54.363Z,20.13
2019-03-20T17:55:54.387Z,20.13
2019-03-20T17:56:54.419Z,20.13
2019-03-20T17:57:54.403Z,20.14
2019-03-20T17:59:54.429Z,20.14
2019-03-20T18:00:54.525Z,20.13
2019-03-20T18:01:54.460Z,20.15
2019-03-20T18:02:54.660Z,20.13
2019-03-20T18:04:54.612Z,20.16
2019-03-20T18:05:54.513Z,20.16
2019-03-20T18:06:54.449Z,20.15
2019-03-20T18:07:54.355Z,20.16
2019-03-20T18:09:54.386Z,20.15
2019-03-20T18:11:54.381Z,20.16
2019-03-20T18:12:54.465Z,20.17
2019-03-20T18:13:54.423Z,20.17
2019-03-20T18:14:54.443Z,20.17
2019-03-20T18:16:54.534Z,20.16
2019-03-20T18:17:54.295Z,20.17
2019-03-20T18:18:54.535Z,20.16
2019-03-20T18:19:54.551Z,20.17
2019-03-20T18:21:54.595Z,20.16
2019-03-20T18:22:54.518Z,20.16
2019-03-20T18:24:54.775Z,20.15
2019-03-20T18:25:54.463Z,20.15
2019-03-20T18:26:54.373Z,20.16
2019-03-20T18:28:54.329Z,20.14
2019-03-20T18:29:54.252Z,20.13
2019-03-20T18:30:54.480Z,20.12
2019-03-20T18:31:54.448Z,20.12
2019-03-20T18:33:54.389Z,20.1
2019-03-20T18:34:54.433Z,20.09
2019-03-20T18:35:54.531Z,20.08
2019-03-20T18:36:54.404Z,20.08
2019-03-20T18:37:54.509Z,20.07
2019-03-20T18:39:54.479Z,20.05
2019-03-20T18:40:54.460Z,20.05
2019-03-20T18:41:57.853Z,20.05
2019-03-20T18:42:54.381Z,20.04
2019-03-20T18:44:54.396Z,20.03
2019-03-20T18:45:54.376Z,20.03
2019-03-20T18:46:54.452Z,20.03
2019-03-20T18:47:54.420Z,20.02
2019-03-20T18:50:54.528Z,20.02
2019-03-20T18:51:54.424Z,20.02